sensor_id;sensor_type;location;lat;lon;timestamp;P1;durP1;ratioP1;P2;durP2;ratioP2
15665;SDS011;20725;51.196;3.510;2023-08-07T00:00:49;6.23;;;2.00;;
15665;SDS011;20725;51.196;3.510;2023-08-07T00:03:17;3.67;;;1.80;;
15665;SDS011;20725;51.196;3.510;2023-08-07T00:05:46;6.30;;;2.10;;
15665;SDS011;20725;51.196;3.510;2023-08-07T00:08:14;2.97;;;1.90;;
15665;SDS011;20725;51.196;3.510;2023-08-07T00:10:41;3.83;;;2.10;;
15665;SDS011;20725;51.196;3.510;2023-08-07T00:13:10;6.60;;;2.10;;
15665;SDS011;20725;51.196;3.510;2023-08-07T00:15:37;3.80;;;2.27;;
15665;SDS011;20725;51.196;3.510;2023-08-07T00:18:05;6.13;;;2.47;;
15665;SDS011;20725;51.196;3.510;2023-08-07T00:20:32;3.10;;;1.93;;
15665;SDS011;20725;51.196;3.510;2023-08-07T00:22:59;7.40;;;1.90;;
15665;SDS011;20725;51.196;3.510;2023-08-07T00:25:27;5.77;;;2.07;;
15665;SDS011;20725;51.196;3.510;2023-08-07T00:27:54;4.60;;;1.90;;
15665;SDS011;20725;51.196;3.510;2023-08-07T00:30:23;3.03;;;2.00;;
15665;SDS011;20725;51.196;3.510;2023-08-07T00:32:50;4.73;;;1.90;;
15665;SDS011;20725;51.196;3.510;2023-08-07T00:35:17;3.90;;;2.10;;
15665;SDS011;20725;51.196;3.510;2023-08-07T00:37:44;7.07;;;1.93;;
15665;SDS011;20725;51.196;3.510;2023-08-07T00:40:12;4.93;;;2.13;;
15665;SDS011;20725;51.196;3.510;2023-08-07T00:42:39;3.80;;;1.90;;
15665;SDS011;20725;51.196;3.510;2023-08-07T00:45:07;3.23;;;2.00;;
15665;SDS011;20725;51.196;3.510;2023-08-07T00:47:36;3.90;;;2.30;;
15665;SDS011;20725;51.196;3.510;2023-08-07T00:50:03;5.57;;;2.00;;
15665;SDS011;20725;51.196;3.510;2023-08-07T00:52:31;4.80;;;1.90;;
15665;SDS011;20725;51.196;3.510;2023-08-07T00:54:59;5.40;;;2.30;;
15665;SDS011;20725;51.196;3.510;2023-08-07T00:57:26;5.63;;;2.10;;
15665;SDS011;20725;51.196;3.510;2023-08-07T00:59:54;3.40;;;2.10;;
15665;SDS011;20725;51.196;3.510;2023-08-07T01:02:22;3.07;;;2.13;;
15665;SDS011;20725;51.196;3.510;2023-08-07T01:04:50;5.50;;;2.13;;
15665;SDS011;20725;51.196;3.510;2023-08-07T01:07:18;5.50;;;2.33;;
15665;SDS011;20725;51.196;3.510;2023-08-07T01:09:45;4.87;;;3.03;;
15665;SDS011;20725;51.196;3.510;2023-08-07T01:12:14;7.33;;;3.00;;
15665;SDS011;20725;51.196;3.510;2023-08-07T01:14:46;8.20;;;2.50;;
15665;SDS011;20725;51.196;3.510;2023-08-07T01:17:15;3.20;;;2.10;;
15665;SDS011;20725;51.196;3.510;2023-08-07T01:19:42;6.73;;;2.47;;
15665;SDS011;20725;51.196;3.510;2023-08-07T01:22:11;7.97;;;2.70;;
15665;SDS011;20725;51.196;3.510;2023-08-07T01:24:39;4.30;;;2.23;;
15665;SDS011;20725;51.196;3.510;2023-08-07T01:27:13;6.83;;;2.63;;
15665;SDS011;20725;51.196;3.510;2023-08-07T01:29:43;4.67;;;2.40;;
15665;SDS011;20725;51.196;3.510;2023-08-07T01:32:11;4.57;;;2.53;;
15665;SDS011;20725;51.196;3.510;2023-08-07T01:34:41;5.20;;;3.17;;
15665;SDS011;20725;51.196;3.510;2023-08-07T01:37:10;3.53;;;2.57;;
15665;SDS011;20725;51.196;3.510;2023-08-07T01:39:39;3.73;;;2.27;;
15665;SDS011;20725;51.196;3.510;2023-08-07T01:42:07;5.17;;;2.53;;
15665;SDS011;20725;51.196;3.510;2023-08-07T01:44:35;5.87;;;2.87;;
15665;SDS011;20725;51.196;3.510;2023-08-07T01:47:03;4.33;;;2.20;;
15665;SDS011;20725;51.196;3.510;2023-08-07T01:49:31;7.50;;;2.67;;
15665;SDS011;20725;51.196;3.510;2023-08-07T01:51:58;5.00;;;2.20;;
15665;SDS011;20725;51.196;3.510;2023-08-07T01:54:27;5.37;;;2.80;;
15665;SDS011;20725;51.196;3.510;2023-08-07T01:56:54;3.03;;;2.20;;
15665;SDS011;20725;51.196;3.510;2023-08-07T01:59:21;4.30;;;2.50;;
15665;SDS011;20725;51.196;3.510;2023-08-07T02:01:49;5.17;;;2.33;;
15665;SDS011;20725;51.196;3.510;2023-08-07T02:04:16;6.07;;;2.47;;
15665;SDS011;20725;51.196;3.510;2023-08-07T02:06:44;6.43;;;2.43;;
15665;SDS011;20725;51.196;3.510;2023-08-07T02:09:11;6.30;;;2.80;;
15665;SDS011;20725;51.196;3.510;2023-08-07T02:11:40;5.80;;;2.50;;
15665;SDS011;20725;51.196;3.510;2023-08-07T02:14:07;12.33;;;3.00;;
15665;SDS011;20725;51.196;3.510;2023-08-07T02:16:35;8.37;;;2.63;;
15665;SDS011;20725;51.196;3.510;2023-08-07T02:19:02;5.93;;;2.57;;
15665;SDS011;20725;51.196;3.510;2023-08-07T02:21:30;6.57;;;2.97;;
15665;SDS011;20725;51.196;3.510;2023-08-07T02:23:57;5.77;;;2.60;;
15665;SDS011;20725;51.196;3.510;2023-08-07T02:26:24;5.33;;;2.47;;
15665;SDS011;20725;51.196;3.510;2023-08-07T02:28:53;4.10;;;2.90;;
15665;SDS011;20725;51.196;3.510;2023-08-07T02:31:20;6.93;;;2.60;;
15665;SDS011;20725;51.196;3.510;2023-08-07T02:33:48;8.30;;;2.67;;
15665;SDS011;20725;51.196;3.510;2023-08-07T02:36:15;6.73;;;2.63;;
15665;SDS011;20725;51.196;3.510;2023-08-07T02:38:42;3.43;;;2.70;;
15665;SDS011;20725;51.196;3.510;2023-08-07T02:41:09;4.60;;;2.70;;
15665;SDS011;20725;51.196;3.510;2023-08-07T02:43:37;3.03;;;2.17;;
15665;SDS011;20725;51.196;3.510;2023-08-07T02:46:05;13.10;;;2.80;;
15665;SDS011;20725;51.196;3.510;2023-08-07T02:48:32;5.37;;;2.70;;
15665;SDS011;20725;51.196;3.510;2023-08-07T02:51:00;4.50;;;2.30;;
15665;SDS011;20725;51.196;3.510;2023-08-07T02:53:27;8.80;;;2.77;;
15665;SDS011;20725;51.196;3.510;2023-08-07T02:55:54;4.90;;;2.30;;
15665;SDS011;20725;51.196;3.510;2023-08-07T02:58:21;3.60;;;2.40;;
15665;SDS011;20725;51.196;3.510;2023-08-07T03:00:49;5.07;;;2.70;;
15665;SDS011;20725;51.196;3.510;2023-08-07T03:03:18;5.70;;;2.60;;
15665;SDS011;20725;51.196;3.510;2023-08-07T03:05:48;3.83;;;2.60;;
15665;SDS011;20725;51.196;3.510;2023-08-07T03:08:16;4.20;;;2.47;;
15665;SDS011;20725;51.196;3.510;2023-08-07T03:10:49;6.43;;;2.80;;
15665;SDS011;20725;51.196;3.510;2023-08-07T03:13:16;2.90;;;2.33;;
15665;SDS011;20725;51.196;3.510;2023-08-07T03:15:44;5.63;;;2.50;;
15665;SDS011;20725;51.196;3.510;2023-08-07T03:18:14;8.27;;;3.33;;
15665;SDS011;20725;51.196;3.510;2023-08-07T03:20:43;6.47;;;2.90;;
15665;SDS011;20725;51.196;3.510;2023-08-07T03:23:10;7.40;;;3.07;;
15665;SDS011;20725;51.196;3.510;2023-08-07T03:25:38;3.23;;;2.40;;
15665;SDS011;20725;51.196;3.510;2023-08-07T03:28:05;4.83;;;2.63;;
15665;SDS011;20725;51.196;3.510;2023-08-07T03:30:32;6.23;;;3.00;;
15665;SDS011;20725;51.196;3.510;2023-08-07T03:33:00;7.10;;;2.97;;
15665;SDS011;20725;51.196;3.510;2023-08-07T03:35:27;5.30;;;2.70;;
15665;SDS011;20725;51.196;3.510;2023-08-07T03:37:56;4.10;;;2.37;;
15665;SDS011;20725;51.196;3.510;2023-08-07T03:40:26;5.03;;;2.23;;
15665;SDS011;20725;51.196;3.510;2023-08-07T03:42:53;3.73;;;2.30;;
15665;SDS011;20725;51.196;3.510;2023-08-07T03:45:20;3.40;;;2.23;;
15665;SDS011;20725;51.196;3.510;2023-08-07T03:47:48;4.77;;;2.60;;
15665;SDS011;20725;51.196;3.510;2023-08-07T03:50:15;8.00;;;2.60;;
15665;SDS011;20725;51.196;3.510;2023-08-07T03:52:42;3.80;;;2.60;;
15665;SDS011;20725;51.196;3.510;2023-08-07T03:55:11;5.77;;;2.67;;
15665;SDS011;20725;51.196;3.510;2023-08-07T03:57:38;6.33;;;2.63;;
15665;SDS011;20725;51.196;3.510;2023-08-07T04:00:06;5.00;;;2.73;;
15665;SDS011;20725;51.196;3.510;2023-08-07T04:02:34;8.53;;;2.80;;
15665;SDS011;20725;51.196;3.510;2023-08-07T04:05:01;6.97;;;3.10;;
15665;SDS011;20725;51.196;3.510;2023-08-07T04:07:28;5.80;;;3.07;;
15665;SDS011;20725;51.196;3.510;2023-08-07T04:09:56;7.80;;;2.63;;
15665;SDS011;20725;51.196;3.510;2023-08-07T04:12:24;7.20;;;2.90;;
15665;SDS011;20725;51.196;3.510;2023-08-07T04:14:52;4.93;;;2.63;;
15665;SDS011;20725;51.196;3.510;2023-08-07T04:17:19;5.20;;;2.77;;
15665;SDS011;20725;51.196;3.510;2023-08-07T04:19:47;6.57;;;2.80;;
15665;SDS011;20725;51.196;3.510;2023-08-07T04:22:14;7.13;;;2.80;;
15665;SDS011;20725;51.196;3.510;2023-08-07T04:24:41;6.67;;;3.17;;
15665;SDS011;20725;51.196;3.510;2023-08-07T04:27:08;9.17;;;3.23;;
15665;SDS011;20725;51.196;3.510;2023-08-07T04:29:38;6.63;;;3.40;;
15665;SDS011;20725;51.196;3.510;2023-08-07T04:32:06;7.57;;;3.70;;
15665;SDS011;20725;51.196;3.510;2023-08-07T04:34:34;4.87;;;3.13;;
15665;SDS011;20725;51.196;3.510;2023-08-07T04:37:02;6.33;;;3.10;;
15665;SDS011;20725;51.196;3.510;2023-08-07T04:39:30;7.10;;;3.13;;
15665;SDS011;20725;51.196;3.510;2023-08-07T04:41:57;9.00;;;3.80;;
15665;SDS011;20725;51.196;3.510;2023-08-07T04:44:24;5.30;;;3.47;;
15665;SDS011;20725;51.196;3.510;2023-08-07T04:46:53;8.00;;;3.63;;
15665;SDS011;20725;51.196;3.510;2023-08-07T04:49:20;8.60;;;3.80;;
15665;SDS011;20725;51.196;3.510;2023-08-07T04:51:48;6.07;;;3.17;;
15665;SDS011;20725;51.196;3.510;2023-08-07T04:54:15;12.03;;;4.17;;
15665;SDS011;20725;51.196;3.510;2023-08-07T04:56:42;4.33;;;3.37;;
15665;SDS011;20725;51.196;3.510;2023-08-07T04:59:10;10.03;;;3.67;;
15665;SDS011;20725;51.196;3.510;2023-08-07T05:01:37;5.80;;;3.47;;
15665;SDS011;20725;51.196;3.510;2023-08-07T05:04:06;7.97;;;3.63;;
15665;SDS011;20725;51.196;3.510;2023-08-07T05:06:33;9.77;;;3.27;;
15665;SDS011;20725;51.196;3.510;2023-08-07T05:09:00;5.23;;;3.37;;
15665;SDS011;20725;51.196;3.510;2023-08-07T05:11:28;11.40;;;3.90;;
15665;SDS011;20725;51.196;3.510;2023-08-07T05:13:55;5.60;;;3.37;;
15665;SDS011;20725;51.196;3.510;2023-08-07T05:16:23;6.37;;;3.43;;
15665;SDS011;20725;51.196;3.510;2023-08-07T05:18:50;7.30;;;3.30;;
15665;SDS011;20725;51.196;3.510;2023-08-07T05:21:19;5.37;;;3.30;;
15665;SDS011;20725;51.196;3.510;2023-08-07T05:23:46;7.80;;;2.90;;
15665;SDS011;20725;51.196;3.510;2023-08-07T05:26:18;8.23;;;3.00;;
15665;SDS011;20725;51.196;3.510;2023-08-07T05:28:45;6.60;;;3.07;;
15665;SDS011;20725;51.196;3.510;2023-08-07T05:31:12;5.73;;;3.10;;
15665;SDS011;20725;51.196;3.510;2023-08-07T05:33:40;9.80;;;3.33;;
15665;SDS011;20725;51.196;3.510;2023-08-07T05:36:07;4.73;;;2.67;;
15665;SDS011;20725;51.196;3.510;2023-08-07T05:38:36;7.03;;;3.40;;
15665;SDS011;20725;51.196;3.510;2023-08-07T05:41:03;5.80;;;3.07;;
15665;SDS011;20725;51.196;3.510;2023-08-07T05:43:31;4.83;;;3.17;;
15665;SDS011;20725;51.196;3.510;2023-08-07T05:45:58;8.97;;;4.03;;
15665;SDS011;20725;51.196;3.510;2023-08-07T05:48:26;6.30;;;2.97;;
15665;SDS011;20725;51.196;3.510;2023-08-07T05:50:53;6.47;;;2.83;;
15665;SDS011;20725;51.196;3.510;2023-08-07T05:53:20;5.53;;;2.93;;
15665;SDS011;20725;51.196;3.510;2023-08-07T05:55:49;10.13;;;2.87;;
15665;SDS011;20725;51.196;3.510;2023-08-07T05:58:16;10.37;;;3.13;;
15665;SDS011;20725;51.196;3.510;2023-08-07T06:00:44;5.23;;;2.50;;
15665;SDS011;20725;51.196;3.510;2023-08-07T06:03:11;6.63;;;3.07;;
15665;SDS011;20725;51.196;3.510;2023-08-07T06:05:39;3.93;;;3.13;;
15665;SDS011;20725;51.196;3.510;2023-08-07T06:08:06;6.53;;;2.77;;
15665;SDS011;20725;51.196;3.510;2023-08-07T06:10:34;7.47;;;2.80;;
15665;SDS011;20725;51.196;3.510;2023-08-07T06:13:03;5.83;;;3.13;;
15665;SDS011;20725;51.196;3.510;2023-08-07T06:15:31;3.00;;;2.60;;
15665;SDS011;20725;51.196;3.510;2023-08-07T06:17:59;4.70;;;2.20;;
15665;SDS011;20725;51.196;3.510;2023-08-07T06:20:27;5.17;;;2.17;;
15665;SDS011;20725;51.196;3.510;2023-08-07T06:22:54;5.63;;;2.37;;
15665;SDS011;20725;51.196;3.510;2023-08-07T06:25:21;4.03;;;2.10;;
15665;SDS011;20725;51.196;3.510;2023-08-07T06:27:50;2.77;;;1.93;;
15665;SDS011;20725;51.196;3.510;2023-08-07T06:30:19;2.80;;;2.00;;
15665;SDS011;20725;51.196;3.510;2023-08-07T06:32:47;3.63;;;2.10;;
15665;SDS011;20725;51.196;3.510;2023-08-07T06:35:17;4.10;;;2.00;;
15665;SDS011;20725;51.196;3.510;2023-08-07T06:37:44;3.73;;;1.87;;
15665;SDS011;20725;51.196;3.510;2023-08-07T06:40:12;4.57;;;2.00;;
15665;SDS011;20725;51.196;3.510;2023-08-07T06:42:39;5.10;;;2.10;;
15665;SDS011;20725;51.196;3.510;2023-08-07T06:45:07;2.80;;;1.67;;
15665;SDS011;20725;51.196;3.510;2023-08-07T06:50:23;3.57;;;2.00;;
15665;SDS011;20725;51.196;3.510;2023-08-07T06:52:57;7.10;;;2.20;;
15665;SDS011;20725;51.196;3.510;2023-08-07T06:55:25;5.43;;;2.10;;
15665;SDS011;20725;51.196;3.510;2023-08-07T06:58:09;5.07;;;2.00;;
15665;SDS011;20725;51.196;3.510;2023-08-07T07:00:42;3.93;;;2.13;;
15665;SDS011;20725;51.196;3.510;2023-08-07T07:03:19;2.20;;;1.73;;
15665;SDS011;20725;51.196;3.510;2023-08-07T07:05:58;3.63;;;1.93;;
15665;SDS011;20725;51.196;3.510;2023-08-07T07:08:42;3.97;;;1.80;;
15665;SDS011;20725;51.196;3.510;2023-08-07T07:11:10;2.77;;;1.70;;
15665;SDS011;20725;51.196;3.510;2023-08-07T07:13:50;4.90;;;1.60;;
15665;SDS011;20725;51.196;3.510;2023-08-07T07:16:26;1.63;;;1.53;;
15665;SDS011;20725;51.196;3.510;2023-08-07T07:19:01;4.17;;;1.70;;
15665;SDS011;20725;51.196;3.510;2023-08-07T07:21:43;4.93;;;1.93;;
15665;SDS011;20725;51.196;3.510;2023-08-07T07:24:10;4.07;;;1.57;;
15665;SDS011;20725;51.196;3.510;2023-08-07T07:26:45;2.73;;;1.60;;
15665;SDS011;20725;51.196;3.510;2023-08-07T07:29:13;3.00;;;1.70;;
15665;SDS011;20725;51.196;3.510;2023-08-07T07:31:41;3.47;;;1.60;;
15665;SDS011;20725;51.196;3.510;2023-08-07T07:34:15;5.10;;;1.77;;
15665;SDS011;20725;51.196;3.510;2023-08-07T07:36:46;3.67;;;1.30;;
15665;SDS011;20725;51.196;3.510;2023-08-07T07:39:34;2.90;;;1.40;;
15665;SDS011;20725;51.196;3.510;2023-08-07T07:42:01;2.47;;;1.77;;
15665;SDS011;20725;51.196;3.510;2023-08-07T07:44:30;3.67;;;1.57;;
15665;SDS011;20725;51.196;3.510;2023-08-07T07:47:00;2.67;;;1.63;;
15665;SDS011;20725;51.196;3.510;2023-08-07T07:49:31;4.03;;;1.80;;
15665;SDS011;20725;51.196;3.510;2023-08-07T07:52:06;3.37;;;1.70;;
15665;SDS011;20725;51.196;3.510;2023-08-07T07:54:37;2.20;;;1.40;;
15665;SDS011;20725;51.196;3.510;2023-08-07T07:57:05;3.37;;;2.00;;
15665;SDS011;20725;51.196;3.510;2023-08-07T07:59:34;3.17;;;1.70;;
15665;SDS011;20725;51.196;3.510;2023-08-07T08:02:02;3.67;;;1.40;;
15665;SDS011;20725;51.196;3.510;2023-08-07T08:04:33;3.43;;;1.63;;
15665;SDS011;20725;51.196;3.510;2023-08-07T08:07:09;2.33;;;1.70;;
15665;SDS011;20725;51.196;3.510;2023-08-07T08:09:39;1.57;;;1.43;;
15665;SDS011;20725;51.196;3.510;2023-08-07T08:12:09;1.90;;;1.57;;
15665;SDS011;20725;51.196;3.510;2023-08-07T08:14:51;4.77;;;1.43;;
15665;SDS011;20725;51.196;3.510;2023-08-07T08:17:24;2.43;;;1.60;;
15665;SDS011;20725;51.196;3.510;2023-08-07T08:20:00;2.93;;;1.67;;
15665;SDS011;20725;51.196;3.510;2023-08-07T08:25:27;3.23;;;1.50;;
15665;SDS011;20725;51.196;3.510;2023-08-07T08:28:01;1.50;;;1.40;;
15665;SDS011;20725;51.196;3.510;2023-08-07T08:30:35;3.03;;;1.60;;
15665;SDS011;20725;51.196;3.510;2023-08-07T08:33:03;3.23;;;1.30;;
15665;SDS011;20725;51.196;3.510;2023-08-07T08:35:37;1.80;;;1.60;;
15665;SDS011;20725;51.196;3.510;2023-08-07T08:38:14;4.43;;;1.40;;
15665;SDS011;20725;51.196;3.510;2023-08-07T08:40:56;2.23;;;1.40;;
15665;SDS011;20725;51.196;3.510;2023-08-07T08:43:33;2.27;;;1.50;;
15665;SDS011;20725;51.196;3.510;2023-08-07T08:46:15;1.77;;;1.37;;
15665;SDS011;20725;51.196;3.510;2023-08-07T08:48:57;4.97;;;1.80;;
15665;SDS011;20725;51.196;3.510;2023-08-07T08:51:32;3.10;;;1.60;;
15665;SDS011;20725;51.196;3.510;2023-08-07T08:54:03;5.00;;;1.40;;
15665;SDS011;20725;51.196;3.510;2023-08-07T08:56:40;1.67;;;1.50;;
15665;SDS011;20725;51.196;3.510;2023-08-07T08:59:19;2.07;;;1.40;;
15665;SDS011;20725;51.196;3.510;2023-08-07T09:02:03;3.28;;;1.63;;
15665;SDS011;20725;51.196;3.510;2023-08-07T09:04:32;5.18;;;1.48;;
15665;SDS011;20725;51.196;3.510;2023-08-07T09:07:10;3.72;;;1.50;;
15665;SDS011;20725;51.196;3.510;2023-08-07T09:09:40;3.90;;;1.60;;
15665;SDS011;20725;51.196;3.510;2023-08-07T09:12:21;4.88;;;1.50;;
15665;SDS011;20725;51.196;3.510;2023-08-07T09:14:54;4.10;;;1.65;;
15665;SDS011;20725;51.196;3.510;2023-08-07T09:17:34;2.97;;;1.57;;
15665;SDS011;20725;51.196;3.510;2023-08-07T09:20:04;2.83;;;1.60;;
15665;SDS011;20725;51.196;3.510;2023-08-07T09:22:45;3.00;;;1.77;;
15665;SDS011;20725;51.196;3.510;2023-08-07T09:25:26;2.00;;;1.70;;
15665;SDS011;20725;51.196;3.510;2023-08-07T09:28:01;3.47;;;1.98;;
15665;SDS011;20725;51.196;3.510;2023-08-07T09:30:31;2.63;;;1.75;;
15665;SDS011;20725;51.196;3.510;2023-08-07T09:33:02;2.17;;;1.90;;
15665;SDS011;20725;51.196;3.510;2023-08-07T09:35:34;3.20;;;1.60;;
15665;SDS011;20725;51.196;3.510;2023-08-07T09:38:10;2.20;;;1.85;;
15665;SDS011;20725;51.196;3.510;2023-08-07T09:40:39;1.60;;;1.50;;
15665;SDS011;20725;51.196;3.510;2023-08-07T09:43:28;2.65;;;1.42;;
15665;SDS011;20725;51.196;3.510;2023-08-07T09:46:03;3.20;;;1.80;;
15665;SDS011;20725;51.196;3.510;2023-08-07T09:48:32;1.83;;;1.73;;
15665;SDS011;20725;51.196;3.510;2023-08-07T09:51:35;1.77;;;1.67;;
15665;SDS011;20725;51.196;3.510;2023-08-07T09:54:15;1.60;;;1.50;;
15665;SDS011;20725;51.196;3.510;2023-08-07T09:56:43;1.95;;;1.45;;
15665;SDS011;20725;51.196;3.510;2023-08-07T09:59:16;2.78;;;2.05;;
15665;SDS011;20725;51.196;3.510;2023-08-07T10:01:47;2.17;;;1.90;;
15665;SDS011;20725;51.196;3.510;2023-08-07T10:04:24;2.63;;;1.58;;
15665;SDS011;20725;51.196;3.510;2023-08-07T10:06:58;2.90;;;1.67;;
15665;SDS011;20725;51.196;3.510;2023-08-07T10:09:32;4.23;;;2.00;;
15665;SDS011;20725;51.196;3.510;2023-08-07T10:12:00;2.35;;;1.77;;
15665;SDS011;20725;51.196;3.510;2023-08-07T10:14:33;2.58;;;1.67;;
15665;SDS011;20725;51.196;3.510;2023-08-07T10:17:07;5.28;;;1.92;;
15665;SDS011;20725;51.196;3.510;2023-08-07T10:19:35;3.05;;;1.65;;
15665;SDS011;20725;51.196;3.510;2023-08-07T10:22:17;3.28;;;1.80;;
15665;SDS011;20725;51.196;3.510;2023-08-07T10:24:52;2.85;;;1.65;;
15665;SDS011;20725;51.196;3.510;2023-08-07T10:27:29;3.88;;;1.85;;
15665;SDS011;20725;51.196;3.510;2023-08-07T10:30:13;3.35;;;1.50;;
15665;SDS011;20725;51.196;3.510;2023-08-07T10:32:52;2.38;;;1.70;;
15665;SDS011;20725;51.196;3.510;2023-08-07T10:35:26;2.15;;;1.80;;
15665;SDS011;20725;51.196;3.510;2023-08-07T10:38:05;2.50;;;1.83;;
15665;SDS011;20725;51.196;3.510;2023-08-07T10:40:33;2.45;;;1.60;;
15665;SDS011;20725;51.196;3.510;2023-08-07T10:43:17;3.03;;;1.77;;
15665;SDS011;20725;51.196;3.510;2023-08-07T10:45:49;1.90;;;1.67;;
15665;SDS011;20725;51.196;3.510;2023-08-07T10:48:17;1.73;;;1.50;;
15665;SDS011;20725;51.196;3.510;2023-08-07T10:50:55;1.90;;;1.58;;
15665;SDS011;20725;51.196;3.510;2023-08-07T10:53:37;3.25;;;1.67;;
15665;SDS011;20725;51.196;3.510;2023-08-07T10:56:11;2.42;;;1.52;;
15665;SDS011;20725;51.196;3.510;2023-08-07T10:58:56;2.83;;;1.30;;
15665;SDS011;20725;51.196;3.510;2023-08-07T11:01:41;2.17;;;1.30;;
15665;SDS011;20725;51.196;3.510;2023-08-07T11:04:09;2.67;;;1.60;;
15665;SDS011;20725;51.196;3.510;2023-08-07T11:06:41;2.97;;;1.80;;
15665;SDS011;20725;51.196;3.510;2023-08-07T11:09:10;2.10;;;1.33;;
15665;SDS011;20725;51.196;3.510;2023-08-07T11:11:38;3.75;;;1.60;;
15665;SDS011;20725;51.196;3.510;2023-08-07T11:14:09;1.30;;;1.20;;
15665;SDS011;20725;51.196;3.510;2023-08-07T11:16:48;2.85;;;1.30;;
15665;SDS011;20725;51.196;3.510;2023-08-07T11:19:18;1.63;;;1.10;;
15665;SDS011;20725;51.196;3.510;2023-08-07T11:21:55;1.45;;;1.30;;
15665;SDS011;20725;51.196;3.510;2023-08-07T11:24:27;2.38;;;1.08;;
15665;SDS011;20725;51.196;3.510;2023-08-07T11:26:55;1.58;;;1.00;;
15665;SDS011;20725;51.196;3.510;2023-08-07T11:29:26;1.75;;;0.80;;
15665;SDS011;20725;51.196;3.510;2023-08-07T11:31:55;1.08;;;0.98;;
15665;SDS011;20725;51.196;3.510;2023-08-07T11:34:24;1.95;;;1.00;;
15665;SDS011;20725;51.196;3.510;2023-08-07T11:36:53;1.38;;;1.15;;
15665;SDS011;20725;51.196;3.510;2023-08-07T11:39:30;3.50;;;0.80;;
15665;SDS011;20725;51.196;3.510;2023-08-07T11:42:08;2.25;;;0.98;;
15665;SDS011;20725;51.196;3.510;2023-08-07T11:44:38;2.17;;;1.10;;
15665;SDS011;20725;51.196;3.510;2023-08-07T11:47:19;2.03;;;1.40;;
15665;SDS011;20725;51.196;3.510;2023-08-07T11:49:59;2.40;;;0.98;;
15665;SDS011;20725;51.196;3.510;2023-08-07T11:52:29;2.47;;;1.40;;
15665;SDS011;20725;51.196;3.510;2023-08-07T11:55:04;1.40;;;1.02;;
15665;SDS011;20725;51.196;3.510;2023-08-07T11:57:49;2.50;;;0.98;;
15665;SDS011;20725;51.196;3.510;2023-08-07T12:00:34;1.52;;;1.15;;
15665;SDS011;20725;51.196;3.510;2023-08-07T12:06:07;1.73;;;0.90;;
15665;SDS011;20725;51.196;3.510;2023-08-07T12:08:38;1.65;;;0.75;;
15665;SDS011;20725;51.196;3.510;2023-08-07T12:11:10;2.28;;;1.15;;
15665;SDS011;20725;51.196;3.510;2023-08-07T12:13:39;1.77;;;1.10;;
15665;SDS011;20725;51.196;3.510;2023-08-07T12:16:13;2.15;;;1.20;;
15665;SDS011;20725;51.196;3.510;2023-08-07T12:18:54;3.78;;;1.10;;
15665;SDS011;20725;51.196;3.510;2023-08-07T12:21:33;2.70;;;1.17;;
15665;SDS011;20725;51.196;3.510;2023-08-07T12:24:20;0.95;;;0.80;;
15665;SDS011;20725;51.196;3.510;2023-08-07T12:27:00;1.83;;;0.82;;
15665;SDS011;20725;51.196;3.510;2023-08-07T12:29:33;1.20;;;0.90;;
15665;SDS011;20725;51.196;3.510;2023-08-07T12:32:14;2.67;;;0.77;;
15665;SDS011;20725;51.196;3.510;2023-08-07T12:35:01;3.03;;;1.05;;
15665;SDS011;20725;51.196;3.510;2023-08-07T12:37:55;2.00;;;1.08;;
15665;SDS011;20725;51.196;3.510;2023-08-07T12:40:36;1.77;;;1.02;;
15665;SDS011;20725;51.196;3.510;2023-08-07T12:43:22;3.13;;;1.20;;
15665;SDS011;20725;51.196;3.510;2023-08-07T12:45:55;1.30;;;1.05;;
15665;SDS011;20725;51.196;3.510;2023-08-07T12:48:35;2.92;;;1.17;;
15665;SDS011;20725;51.196;3.510;2023-08-07T12:51:30;2.47;;;1.00;;
15665;SDS011;20725;51.196;3.510;2023-08-07T12:54:23;1.40;;;0.90;;
15665;SDS011;20725;51.196;3.510;2023-08-07T12:57:04;2.72;;;1.42;;
15665;SDS011;20725;51.196;3.510;2023-08-07T12:59:37;1.42;;;0.90;;
15665;SDS011;20725;51.196;3.510;2023-08-07T13:02:45;1.80;;;0.85;;
15665;SDS011;20725;51.196;3.510;2023-08-07T13:05:46;2.03;;;1.00;;
15665;SDS011;20725;51.196;3.510;2023-08-07T13:11:53;3.28;;;1.13;;
15665;SDS011;20725;51.196;3.510;2023-08-07T13:14:39;2.28;;;0.90;;
15665;SDS011;20725;51.196;3.510;2023-08-07T13:17:29;1.60;;;0.85;;
15665;SDS011;20725;51.196;3.510;2023-08-07T13:20:32;1.90;;;0.90;;
15665;SDS011;20725;51.196;3.510;2023-08-07T13:24:09;3.42;;;1.17;;
15665;SDS011;20725;51.196;3.510;2023-08-07T13:26:37;1.30;;;0.90;;
15665;SDS011;20725;51.196;3.510;2023-08-07T14:03:23;1.83;;;1.00;;
15665;SDS011;20725;51.196;3.510;2023-08-07T14:06:03;1.70;;;1.02;;
15665;SDS011;20725;51.196;3.510;2023-08-07T14:08:55;0.95;;;0.88;;
15665;SDS011;20725;51.196;3.510;2023-08-07T14:11:48;2.15;;;1.20;;
15665;SDS011;20725;51.196;3.510;2023-08-07T14:17:25;2.33;;;1.10;;
15665;SDS011;20725;51.196;3.510;2023-08-07T14:20:06;2.35;;;0.90;;
15665;SDS011;20725;51.196;3.510;2023-08-07T14:22:38;2.38;;;1.15;;
15665;SDS011;20725;51.196;3.510;2023-08-07T14:28:30;2.35;;;0.82;;
15665;SDS011;20725;51.196;3.510;2023-08-07T14:31:46;1.92;;;1.20;;
15665;SDS011;20725;51.196;3.510;2023-08-07T14:34:44;2.63;;;1.30;;
15665;SDS011;20725;51.196;3.510;2023-08-07T14:37:32;1.55;;;1.13;;
15665;SDS011;20725;51.196;3.510;2023-08-07T14:43:23;1.02;;;0.80;;
15665;SDS011;20725;51.196;3.510;2023-08-07T14:46:13;2.08;;;0.90;;
15665;SDS011;20725;51.196;3.510;2023-08-07T14:49:00;2.08;;;1.13;;
15665;SDS011;20725;51.196;3.510;2023-08-07T14:52:06;1.88;;;1.15;;
15665;SDS011;20725;51.196;3.510;2023-08-07T15:07:11;1.63;;;1.33;;
15665;SDS011;20725;51.196;3.510;2023-08-07T15:37:23;4.40;;;1.80;;
15665;SDS011;20725;51.196;3.510;2023-08-07T15:40:20;2.83;;;1.47;;
15665;SDS011;20725;51.196;3.510;2023-08-07T15:45:49;5.33;;;1.60;;
15665;SDS011;20725;51.196;3.510;2023-08-07T15:51:18;3.43;;;1.87;;
15665;SDS011;20725;51.196;3.510;2023-08-07T16:34:09;2.73;;;1.30;;
15665;SDS011;20725;51.196;3.510;2023-08-07T16:36:48;1.77;;;1.40;;
15665;SDS011;20725;51.196;3.510;2023-08-07T16:42:46;2.23;;;1.37;;
15665;SDS011;20725;51.196;3.510;2023-08-07T16:45:16;2.40;;;1.10;;
15665;SDS011;20725;51.196;3.510;2023-08-07T16:51:03;3.33;;;1.50;;
15665;SDS011;20725;51.196;3.510;2023-08-07T16:53:33;3.90;;;1.57;;
15665;SDS011;20725;51.196;3.510;2023-08-07T16:56:00;3.93;;;1.47;;
15665;SDS011;20725;51.196;3.510;2023-08-07T16:59:02;3.13;;;1.20;;
15665;SDS011;20725;51.196;3.510;2023-08-07T17:01:43;4.63;;;1.50;;
15665;SDS011;20725;51.196;3.510;2023-08-07T17:16:34;2.80;;;1.20;;
15665;SDS011;20725;51.196;3.510;2023-08-07T17:19:19;2.83;;;1.47;;
15665;SDS011;20725;51.196;3.510;2023-08-07T17:25:16;3.03;;;1.50;;
15665;SDS011;20725;51.196;3.510;2023-08-07T17:31:16;4.23;;;1.40;;
15665;SDS011;20725;51.196;3.510;2023-08-07T17:46:13;3.20;;;1.50;;
15665;SDS011;20725;51.196;3.510;2023-08-07T17:48:41;2.13;;;1.30;;
15665;SDS011;20725;51.196;3.510;2023-08-07T17:54:23;4.93;;;1.80;;
15665;SDS011;20725;51.196;3.510;2023-08-07T17:56:51;1.97;;;1.57;;
15665;SDS011;20725;51.196;3.510;2023-08-07T18:58:21;4.00;;;2.80;;
15665;SDS011;20725;51.196;3.510;2023-08-07T19:22:32;5.37;;;2.70;;
15665;SDS011;20725;51.196;3.510;2023-08-07T19:25:14;4.90;;;2.63;;
15665;SDS011;20725;51.196;3.510;2023-08-07T19:28:02;3.63;;;2.37;;
15665;SDS011;20725;51.196;3.510;2023-08-07T19:30:55;5.83;;;2.23;;
15665;SDS011;20725;51.196;3.510;2023-08-07T19:33:29;5.20;;;2.50;;
15665;SDS011;20725;51.196;3.510;2023-08-07T19:36:09;5.13;;;2.50;;
15665;SDS011;20725;51.196;3.510;2023-08-07T19:44:57;4.87;;;2.30;;
15665;SDS011;20725;51.196;3.510;2023-08-07T19:47:35;2.43;;;2.20;;
15665;SDS011;20725;51.196;3.510;2023-08-07T19:50:34;3.23;;;2.53;;
15665;SDS011;20725;51.196;3.510;2023-08-07T19:53:19;2.13;;;1.90;;